createdAt,value
2016-06-06T08:40:06.324Z,400
2016-06-06T08:40:18.871Z,395
2016-06-06T08:41:18.967Z,390
2016-06-06T08:42:18.861Z,405
2016-06-06T08:43:18.708Z,395
2016-06-06T08:44:19.444Z,400
2016-06-06T08:45:18.822Z,405
2016-06-06T08:46:18.824Z,405
2016-06-06T08:47:18.874Z,430
2016-06-06T08:48:18.799Z,415
2016-06-06T08:49:18.802Z,440
2016-06-06T08:50:18.788Z,430
2016-06-06T08:51:18.776Z,420
2016-06-06T08:52:18.779Z,420
2016-06-06T08:53:18.749Z,435
2016-06-06T08:54:18.768Z,405
2016-06-06T08:55:18.755Z,420
2016-06-06T08:56:18.757Z,420
2016-06-06T08:57:18.729Z,405
2016-06-06T08:58:18.747Z,405
2016-06-06T08:59:18.657Z,400
2016-06-06T09:00:18.565Z,405
2016-06-06T09:01:18.724Z,395
2016-06-06T09:02:18.712Z,390
2016-06-06T09:03:18.729Z,390
2016-06-06T09:04:18.701Z,390
2016-06-06T09:05:18.704Z,405
2016-06-06T09:06:18.722Z,400
2016-06-06T09:07:18.678Z,395
2016-06-06T09:08:18.758Z,390
2016-06-06T09:09:18.668Z,390
2016-06-06T09:10:18.530Z,385
2016-06-06T09:11:18.658Z,390
2016-06-06T09:12:18.645Z,395
2016-06-06T09:13:18.647Z,395
2016-06-06T09:14:19.228Z,390
2016-06-06T09:15:18.730Z,390
2016-06-06T09:16:18.655Z,390
2016-06-06T09:17:18.627Z,385
2016-06-06T09:18:18.614Z,395
2016-06-06T09:19:18.601Z,395
2016-06-06T09:20:18.713Z,400
2016-06-06T09:21:18.450Z,400
2016-06-06T09:22:18.593Z,400
2016-06-06T09:23:18.596Z,400
2016-06-06T09:24:18.599Z,400
2016-06-06T09:25:18.585Z,405
2016-06-06T09:26:18.588Z,405
2016-06-06T09:27:18.576Z,405
2016-06-06T09:28:18.579Z,405
2016-06-06T09:29:18.315Z,405
2016-06-06T09:30:18.584Z,425
2016-06-06T09:31:18.570Z,450
2016-06-06T09:32:18.573Z,490
2016-06-06T09:33:18.576Z,550
2016-06-06T09:34:18.610Z,605
2016-06-06T09:35:18.551Z,635
2016-06-06T09:36:18.553Z,700
2016-06-06T09:37:18.556Z,765
2016-06-06T09:38:18.573Z,820
2016-06-06T09:39:18.623Z,710
2016-06-06T09:40:18.611Z,885
2016-06-06T09:41:18.567Z,915
2016-06-06T09:42:18.584Z,915
2016-06-06T09:43:18.400Z,890
2016-06-06T09:44:18.355Z,875
2016-06-06T09:45:18.609Z,885
2016-06-06T09:46:18.549Z,880
2016-06-06T09:47:18.520Z,905
2016-06-06T09:48:18.569Z,860
2016-06-06T09:49:18.603Z,845
2016-06-06T09:50:18.527Z,825
2016-06-06T09:51:18.608Z,835
2016-06-06T09:52:18.549Z,850
2016-06-06T09:53:18.552Z,850
2016-06-06T09:54:18.539Z,840
2016-06-06T09:55:18.526Z,815
2016-06-06T09:56:18.544Z,805
2016-06-06T09:57:18.547Z,805
2016-06-06T09:58:18.565Z,815
2016-06-06T09:59:18.802Z,825
2016-06-06T10:00:18.524Z,805
2016-06-06T10:01:18.543Z,790
2016-06-06T10:02:18.545Z,790
2016-06-06T10:03:18.470Z,795
2016-06-06T10:04:18.550Z,760
2016-06-06T10:05:18.553Z,770
2016-06-06T10:06:18.587Z,790
2016-06-06T10:07:18.559Z,770
2016-06-06T10:08:18.529Z,755
2016-06-06T10:09:18.532Z,770
2016-06-06T10:10:18.550Z,750
2016-06-06T10:11:18.538Z,725
2016-06-06T10:12:18.369Z,715
2016-06-06T10:13:18.542Z,715
2016-06-06T10:14:18.562Z,695
2016-06-06T10:15:18.533Z,685
2016-06-06T10:16:18.567Z,675
2016-06-06T10:17:18.538Z,670
2016-06-06T10:18:18.525Z,675
2016-06-06T10:19:18.544Z,680
2016-06-06T10:20:18.594Z,680
2016-06-06T10:21:18.346Z,675
2016-06-06T10:22:18.411Z,645
2016-06-06T10:23:18.524Z,645
2016-06-06T10:24:18.510Z,645
2016-06-06T10:25:18.513Z,625
2016-06-06T10:26:18.516Z,625
2016-06-06T10:27:18.534Z,620
2016-06-06T10:28:18.504Z,630
2016-06-06T10:29:18.540Z,610
2016-06-06T10:30:18.526Z,600
2016-06-06T10:31:18.513Z,595
2016-06-06T10:32:18.515Z,590
2016-06-06T10:33:18.518Z,575
2016-06-06T10:34:18.506Z,575
2016-06-06T10:35:18.524Z,575
2016-06-06T10:36:18.526Z,570
2016-06-06T10:37:18.514Z,565
2016-06-06T10:38:18.500Z,555
2016-06-06T10:39:18.707Z,560
2016-06-06T10:40:18.350Z,480
2016-06-06T10:41:18.525Z,385
2016-06-06T10:42:18.355Z,345
2016-06-06T10:43:18.577Z,340
2016-06-06T10:44:18.783Z,340
2016-06-06T10:45:19.536Z,340
2016-06-06T10:46:18.506Z,340
2016-06-06T10:47:18.525Z,335
2016-06-06T10:48:18.497Z,335
2016-06-06T10:49:18.546Z,335
2016-06-06T10:50:18.486Z,335
2016-06-06T10:51:18.505Z,335
2016-06-06T10:52:18.492Z,335
2016-06-06T10:53:18.494Z,335
2016-06-06T10:54:18.450Z,335
2016-06-06T10:55:18.469Z,335
2016-06-06T10:56:18.487Z,330
2016-06-06T10:57:18.474Z,330
2016-06-06T10:58:18.492Z,330
2016-06-06T10:59:19.276Z,330
2016-06-06T11:00:18.169Z,330
2016-06-06T11:01:18.454Z,330
2016-06-06T11:02:18.471Z,330
2016-06-06T11:03:18.459Z,325
2016-06-06T11:04:18.493Z,330
2016-06-06T11:05:18.449Z,330
2016-06-06T11:06:18.311Z,325
2016-06-06T11:07:18.438Z,325
2016-06-06T11:08:18.456Z,325
2016-06-06T11:09:18.443Z,325
2016-06-06T11:10:18.478Z,325
2016-06-06T11:11:18.434Z,320
2016-06-06T11:12:18.436Z,320
2016-06-06T11:13:18.454Z,320
2016-06-06T11:14:19.286Z,320
2016-06-06T11:15:19.772Z,325
2016-06-06T11:16:18.509Z,320
2016-06-06T11:17:18.433Z,320
2016-06-06T11:18:18.437Z,320
2016-06-06T11:19:18.408Z,325
2016-06-06T11:20:18.411Z,360
2016-06-06T11:21:18.430Z,395
2016-06-06T11:22:18.416Z,355
2016-06-06T11:23:18.403Z,320
2016-06-06T11:24:18.406Z,315
2016-06-06T11:25:18.408Z,320
2016-06-06T11:26:18.411Z,315
2016-06-06T11:27:18.414Z,310
2016-06-06T11:28:18.385Z,310
2016-06-06T11:29:18.826Z,315
2016-06-06T11:30:19.016Z,310
2016-06-06T11:31:18.581Z,310
2016-06-06T11:32:18.380Z,310
2016-06-06T11:33:18.399Z,310
2016-06-06T11:34:18.370Z,310
2016-06-06T11:35:18.373Z,310
2016-06-06T11:36:18.376Z,310
2016-06-06T11:37:18.519Z,305
2016-06-06T11:38:18.365Z,310
2016-06-06T11:39:18.259Z,305
2016-06-06T11:40:18.355Z,310
2016-06-06T11:41:18.358Z,305
2016-06-06T11:42:18.345Z,305
2016-06-06T11:43:18.426Z,305
2016-06-06T11:44:18.647Z,305
2016-06-06T11:45:19.337Z,305
2016-06-06T11:46:18.184Z,305
2016-06-06T11:47:18.045Z,300
2016-06-06T11:48:18.330Z,300
2016-06-06T11:49:18.317Z,300
2016-06-06T11:50:18.148Z,300
2016-06-06T11:51:18.322Z,295
2016-06-06T11:52:18.325Z,300
2016-06-06T11:53:18.219Z,295
2016-06-06T11:54:18.158Z,295
2016-06-06T11:55:18.161Z,295
2016-06-06T11:56:18.164Z,295
2016-06-06T11:57:18.322Z,295
2016-06-06T11:58:18.310Z,295
2016-06-06T11:59:19.343Z,295
2016-06-06T12:00:19.878Z,295
2016-06-06T12:01:18.302Z,295
2016-06-06T12:02:18.367Z,295
2016-06-06T12:03:18.308Z,295
2016-06-06T12:04:18.327Z,290
2016-06-06T12:05:18.298Z,295
2016-06-06T12:06:18.362Z,275
2016-06-06T12:07:18.304Z,275
2016-06-06T12:08:18.399Z,270
2016-06-06T12:09:18.323Z,270
2016-06-06T12:10:18.312Z,270
2016-06-06T12:11:18.314Z,265
2016-06-06T12:12:18.363Z,265
2016-06-06T12:13:18.288Z,265
2016-06-06T12:14:19.228Z,265
2016-06-06T12:15:18.309Z,265
2016-06-06T12:16:18.312Z,260
2016-06-06T12:17:18.283Z,265
2016-06-06T12:18:18.301Z,260
2016-06-06T12:19:18.273Z,260
2016-06-06T12:20:18.275Z,260
2016-06-06T12:21:18.278Z,255
2016-06-06T12:22:18.265Z,255
2016-06-06T12:23:18.252Z,255
2016-06-06T12:24:18.270Z,255
2016-06-06T12:25:18.335Z,255
2016-06-06T12:26:18.291Z,255
2016-06-06T12:27:18.325Z,255
2016-06-06T12:28:18.265Z,255
2016-06-06T12:29:19.096Z,255
2016-06-06T12:30:18.302Z,255
2016-06-06T12:31:18.321Z,260
2016-06-06T12:32:18.277Z,255
2016-06-06T12:33:18.341Z,250
2016-06-06T12:34:18.250Z,255
2016-06-06T12:35:18.238Z,250
2016-06-06T12:36:18.240Z,250
2016-06-06T12:37:18.274Z,250
2016-06-06T12:38:18.245Z,245
2016-06-06T12:39:18.232Z,245
2016-06-06T12:40:18.220Z,245
2016-06-06T12:41:18.223Z,245
2016-06-06T12:42:18.209Z,240
2016-06-06T12:43:18.213Z,245
2016-06-06T12:44:18.481Z,245
2016-06-06T12:45:18.655Z,240
2016-06-06T12:46:18.204Z,240
2016-06-06T12:47:18.192Z,235
2016-06-06T12:48:18.195Z,240
2016-06-06T12:49:18.228Z,235
2016-06-06T12:50:18.200Z,235
2016-06-06T12:51:18.203Z,235
2016-06-06T12:52:18.220Z,235
2016-06-06T12:53:18.036Z,235
2016-06-06T12:54:18.211Z,235
2016-06-06T12:55:18.198Z,235
2016-06-06T12:56:18.200Z,230
2016-06-06T12:57:18.171Z,230
2016-06-06T12:58:18.205Z,230
2016-06-06T12:59:18.443Z,235
2016-06-06T13:00:19.180Z,235
2016-06-06T13:01:18.167Z,235
2016-06-06T13:02:18.279Z,235
2016-06-06T13:03:18.172Z,230
2016-06-06T13:04:18.331Z,230
2016-06-06T13:05:18.194Z,230
2016-06-06T13:06:18.180Z,230
2016-06-06T13:07:18.151Z,230
2016-06-06T13:08:17.999Z,230
2016-06-06T13:09:18.141Z,225
2016-06-06T13:10:18.160Z,225
2016-06-06T13:11:18.162Z,225
2016-06-06T13:12:18.009Z,230
2016-06-06T13:13:18.137Z,230
2016-06-06T13:14:18.421Z,225
2016-06-06T13:15:18.032Z,230
2016-06-06T13:16:18.145Z,225
2016-06-06T13:17:17.975Z,225
2016-06-06T13:18:17.994Z,225
2016-06-06T13:19:18.153Z,225
2016-06-06T13:20:18.125Z,220
2016-06-06T13:21:18.111Z,215
2016-06-06T13:22:18.145Z,215
2016-06-06T13:23:18.133Z,215
2016-06-06T13:24:18.119Z,220
2016-06-06T13:25:18.106Z,225
2016-06-06T13:26:18.141Z,225
2016-06-06T13:27:18.111Z,220
2016-06-06T13:28:18.114Z,225
2016-06-06T13:29:18.727Z,225
2016-06-06T13:30:18.479Z,220
2016-06-06T13:31:18.091Z,220
2016-06-06T13:32:17.938Z,220
2016-06-06T13:33:18.080Z,220
2016-06-06T13:34:18.115Z,220
2016-06-06T13:35:17.977Z,220
2016-06-06T13:36:18.089Z,220
2016-06-06T13:37:18.185Z,220
2016-06-06T13:38:18.110Z,220
2016-06-06T13:39:18.082Z,220
2016-06-06T13:40:18.084Z,220
2016-06-06T13:41:18.071Z,220
2016-06-06T13:42:17.933Z,220
2016-06-06T13:43:17.921Z,220
2016-06-06T13:44:18.533Z,220
2016-06-06T13:45:19.192Z,220
2016-06-06T13:46:18.069Z,220
2016-06-06T13:47:18.073Z,220
2016-06-06T13:48:18.075Z,220
2016-06-06T13:49:18.045Z,220
2016-06-06T13:50:18.080Z,220
2016-06-06T13:51:17.911Z,215
2016-06-06T13:52:18.148Z,215
2016-06-06T13:53:18.072Z,215
2016-06-06T13:54:18.059Z,215
2016-06-06T13:55:18.062Z,215
2016-06-06T13:56:18.080Z,215
2016-06-06T13:57:18.067Z,215
2016-06-06T13:58:18.101Z,220
2016-06-06T13:59:19.291Z,215
2016-06-06T14:00:19.482Z,215
2016-06-06T14:01:17.875Z,215
2016-06-06T14:02:17.941Z,215
2016-06-06T14:03:18.036Z,215
2016-06-06T14:04:18.039Z,215
2016-06-06T14:05:18.042Z,215
2016-06-06T14:06:18.092Z,215
2016-06-06T14:07:18.032Z,215
2016-06-06T14:08:18.019Z,215
2016-06-06T14:09:18.021Z,215
2016-06-06T14:10:18.024Z,215
2016-06-06T14:11:18.043Z,215
2016-06-06T14:12:18.030Z,215
2016-06-06T14:13:18.017Z,215
2016-06-06T14:14:18.535Z,220
2016-06-06T14:15:18.444Z,220
2016-06-06T14:16:18.007Z,220
2016-06-06T14:17:18.041Z,220
2016-06-06T14:18:17.996Z,210
2016-06-06T14:19:17.998Z,210
2016-06-06T14:20:18.001Z,210
2016-06-06T14:21:18.051Z,205
2016-06-06T14:22:17.991Z,200
2016-06-06T14:23:17.994Z,200
2016-06-06T14:24:17.981Z,200
2016-06-06T14:25:18.015Z,200
2016-06-06T14:26:17.815Z,195
2016-06-06T14:27:18.083Z,190
2016-06-06T14:28:18.132Z,190
2016-06-06T14:29:18.058Z,195
2016-06-06T14:30:18.497Z,190
2016-06-06T14:31:17.968Z,185
2016-06-06T14:32:17.972Z,175
2016-06-06T14:33:17.974Z,175
2016-06-06T14:34:17.977Z,165
2016-06-06T14:35:17.963Z,175
2016-06-06T14:36:17.810Z,165
2016-06-06T14:37:18.032Z,165
2016-06-06T14:38:17.972Z,160
2016-06-06T14:39:17.959Z,155
2016-06-06T14:40:17.963Z,155
2016-06-06T14:41:17.965Z,160
2016-06-06T14:42:17.951Z,155
2016-06-06T14:43:17.954Z,160
2016-06-06T14:44:19.098Z,160
2016-06-06T14:45:18.022Z,165
2016-06-06T14:46:17.946Z,165
2016-06-06T14:47:17.918Z,165
2016-06-06T14:48:17.920Z,165
2016-06-06T14:49:17.940Z,165
2016-06-06T14:50:18.067Z,160
2016-06-06T14:51:17.912Z,145
2016-06-06T14:52:17.994Z,145
2016-06-06T14:53:17.887Z,145
2016-06-06T14:54:17.983Z,150
2016-06-06T14:55:17.892Z,145
2016-06-06T14:56:17.973Z,145
2016-06-06T14:57:17.898Z,140
2016-06-06T14:58:17.900Z,135
2016-06-06T14:59:18.201Z,135
2016-06-06T15:00:18.203Z,140
2016-06-06T15:01:17.925Z,140
2016-06-06T15:02:17.896Z,135
2016-06-06T15:03:17.914Z,135
2016-06-06T15:04:17.886Z,140
2016-06-06T15:05:17.888Z,140
2016-06-06T15:06:17.922Z,135
2016-06-06T15:07:17.910Z,135
2016-06-06T15:08:17.912Z,130
2016-06-06T15:09:17.900Z,135
2016-06-06T15:10:17.871Z,130
2016-06-06T15:11:17.716Z,130
2016-06-06T15:12:17.860Z,125
2016-06-06T15:13:17.785Z,125
2016-06-06T15:14:18.287Z,125
2016-06-06T15:15:18.696Z,120
2016-06-06T15:16:17.855Z,120
2016-06-06T15:17:17.857Z,120
2016-06-06T15:18:17.860Z,120
2016-06-06T15:19:17.863Z,120
2016-06-06T15:20:17.866Z,120
2016-06-06T15:21:17.744Z,120
2016-06-06T15:22:17.871Z,120
2016-06-06T15:23:17.843Z,120
2016-06-06T15:24:17.846Z,120
2016-06-06T15:25:17.834Z,120
2016-06-06T15:26:17.836Z,120
2016-06-06T15:27:17.666Z,120
2016-06-06T15:28:17.653Z,120
2016-06-06T15:29:35.612Z,120
2016-06-06T15:30:18.690Z,120
2016-06-06T15:31:17.834Z,120
2016-06-06T15:32:17.820Z,120
2016-06-06T15:33:17.792Z,120
2016-06-06T15:34:17.810Z,115
2016-06-06T15:35:17.798Z,115
2016-06-06T15:36:17.488Z,115
2016-06-06T15:37:17.819Z,110
2016-06-06T15:38:17.789Z,110
2016-06-06T15:39:17.777Z,110
2016-06-06T15:40:17.780Z,110
2016-06-06T15:41:17.782Z,110
2016-06-06T15:42:17.785Z,110
2016-06-06T15:43:17.787Z,110
2016-06-06T15:44:17.774Z,105
2016-06-06T15:45:18.605Z,105
2016-06-06T15:46:17.765Z,105
2016-06-06T15:47:17.752Z,105
2016-06-06T15:48:17.770Z,105
2016-06-06T15:49:17.632Z,105
2016-06-06T15:50:17.744Z,105
2016-06-06T15:51:17.575Z,105
2016-06-06T15:52:17.827Z,105
2016-06-06T15:53:17.737Z,105
2016-06-06T15:54:17.770Z,105
2016-06-06T15:55:17.726Z,105
2016-06-06T15:56:17.635Z,105
2016-06-06T15:57:17.731Z,105
2016-06-06T15:58:17.781Z,105
2016-06-06T15:59:17.768Z,105
2016-06-06T16:00:17.599Z,105
2016-06-06T16:01:17.711Z,105
2016-06-06T16:02:17.698Z,100
2016-06-06T16:03:17.701Z,105
2016-06-06T16:04:17.719Z,105
2016-06-06T16:05:17.675Z,105
2016-06-06T16:06:17.709Z,105
2016-06-06T16:07:17.711Z,105
2016-06-06T16:08:17.683Z,105
2016-06-06T16:09:17.514Z,105
2016-06-06T16:10:17.705Z,105
2016-06-06T16:11:17.675Z,105
2016-06-06T16:12:17.678Z,105
2016-06-06T16:13:17.650Z,105
2016-06-06T16:14:17.669Z,105
2016-06-06T16:15:17.671Z,105
2016-06-06T16:16:17.658Z,105
2016-06-06T16:17:17.473Z,105
2016-06-06T16:18:17.663Z,105
2016-06-06T16:19:17.666Z,105
2016-06-06T16:20:17.622Z,110
2016-06-06T16:21:17.624Z,110
2016-06-06T16:22:17.643Z,110
2016-06-06T16:23:17.302Z,110
2016-06-06T16:24:17.617Z,110
2016-06-06T16:25:17.651Z,120
2016-06-06T16:26:17.654Z,115
2016-06-06T16:27:17.609Z,110
2016-06-06T16:28:17.628Z,110
2016-06-06T16:29:17.662Z,110
2016-06-06T16:30:17.445Z,110
2016-06-06T16:31:17.604Z,105
2016-06-06T16:32:17.592Z,105
2016-06-06T16:33:17.625Z,105
2016-06-06T16:34:17.597Z,105
2016-06-06T16:35:17.647Z,105
2016-06-06T16:36:17.400Z,105
2016-06-06T16:37:17.605Z,105
2016-06-06T16:38:17.561Z,105
2016-06-06T16:39:17.595Z,105
2016-06-06T16:40:17.566Z,100
2016-06-06T16:41:17.553Z,100
2016-06-06T16:42:17.572Z,100
2016-06-06T16:43:17.563Z,100
2016-06-06T16:44:17.649Z,100
2016-06-06T16:45:17.641Z,95
2016-06-06T16:46:17.555Z,95
2016-06-06T16:47:17.563Z,100
2016-06-06T16:48:17.537Z,100
2016-06-06T16:49:17.541Z,100
2016-06-06T16:50:17.559Z,100
2016-06-06T16:51:17.580Z,100
2016-06-06T16:52:17.537Z,100
2016-06-06T16:53:17.525Z,95
2016-06-06T16:54:17.591Z,95
2016-06-06T16:55:17.548Z,95
2016-06-06T16:56:17.551Z,90
2016-06-06T16:57:17.508Z,90
2016-06-06T16:58:17.527Z,90
2016-06-06T16:59:17.357Z,90
2016-06-06T17:00:17.580Z,90
2016-06-06T17:01:17.520Z,90
2016-06-06T17:02:17.508Z,90
2016-06-06T17:03:17.511Z,85
2016-06-06T17:04:17.497Z,90
2016-06-06T17:05:17.484Z,90
2016-06-06T17:06:17.486Z,90
2016-06-06T17:07:17.475Z,85
2016-06-06T17:08:17.367Z,85
2016-06-06T17:09:17.480Z,85
2016-06-06T17:10:17.467Z,85
2016-06-06T17:11:17.453Z,90
2016-06-06T17:12:17.456Z,90
2016-06-06T17:13:17.459Z,90
2016-06-06T17:14:17.461Z,85
2016-06-06T17:15:18.168Z,85
2016-06-06T17:16:17.436Z,90
2016-06-06T17:17:17.438Z,90
2016-06-06T17:18:17.426Z,85
2016-06-06T17:19:17.444Z,85
2016-06-06T17:20:17.446Z,85
2016-06-06T17:21:17.480Z,85
2016-06-06T17:22:17.280Z,85
2016-06-06T17:23:17.393Z,85
2016-06-06T17:24:17.395Z,80
2016-06-06T17:25:17.460Z,80
2016-06-06T17:26:17.400Z,75
2016-06-06T17:27:17.418Z,80
2016-06-06T17:28:17.390Z,80
2016-06-06T17:29:17.423Z,75
2016-06-06T17:30:17.787Z,75
2016-06-06T17:31:17.398Z,75
2016-06-06T17:32:17.369Z,75
2016-06-06T17:33:17.435Z,70
2016-06-06T17:34:17.359Z,70
2016-06-06T17:35:17.361Z,70
2016-06-06T17:36:17.364Z,70
2016-06-06T17:37:17.195Z,70
2016-06-06T17:38:17.338Z,70
2016-06-06T17:39:17.358Z,70
2016-06-06T17:40:17.328Z,65
2016-06-06T17:41:17.362Z,65
2016-06-06T17:42:17.178Z,65
2016-06-06T17:43:17.321Z,60
2016-06-06T17:44:17.339Z,60
2016-06-06T17:45:18.513Z,60
2016-06-06T17:46:17.314Z,60
2016-06-06T17:47:16.988Z,55
2016-06-06T17:48:17.318Z,55
2016-06-06T17:49:17.291Z,50
2016-06-06T17:50:17.308Z,55
2016-06-06T17:51:17.310Z,55
2016-06-06T17:52:17.298Z,50
2016-06-06T17:53:17.270Z,50
2016-06-06T17:54:17.273Z,50
2016-06-06T17:55:17.275Z,50
2016-06-06T17:56:17.278Z,50
2016-06-06T17:57:17.249Z,50
2016-06-06T17:58:17.251Z,45
2016-06-06T17:59:17.004Z,45
2016-06-06T18:00:17.835Z,45
2016-06-06T18:01:17.245Z,45
2016-06-06T18:02:17.262Z,45
2016-06-06T18:03:17.234Z,45
2016-06-06T18:04:17.112Z,40
2016-06-06T18:05:17.239Z,40
2016-06-06T18:06:17.211Z,40
2016-06-06T18:07:17.214Z,40
2016-06-06T18:08:17.169Z,40
2016-06-06T18:09:17.203Z,40
2016-06-06T18:10:17.191Z,40
2016-06-06T18:11:17.177Z,40
2016-06-06T18:12:17.180Z,40
2016-06-06T18:13:17.183Z,40
2016-06-06T18:14:17.264Z,40
2016-06-06T18:15:18.110Z,40
2016-06-06T18:16:17.050Z,40
2016-06-06T18:17:17.163Z,35
2016-06-06T18:18:17.180Z,35
2016-06-06T18:19:17.152Z,35
2016-06-06T18:20:17.030Z,35
2016-06-06T18:21:17.158Z,35
2016-06-06T18:22:17.144Z,35
2016-06-06T18:23:17.101Z,35
2016-06-06T18:24:17.134Z,35
2016-06-06T18:25:17.122Z,35
2016-06-06T18:26:17.123Z,35
2016-06-06T18:27:17.095Z,35
2016-06-06T18:28:17.114Z,35
2016-06-06T18:29:17.101Z,35
2016-06-06T18:30:17.415Z,35
2016-06-06T18:31:17.216Z,35
2016-06-06T18:32:17.093Z,30
2016-06-06T18:33:17.158Z,30
2016-06-06T18:34:17.083Z,30
2016-06-06T18:35:17.117Z,30
2016-06-06T18:36:17.042Z,30
2016-06-06T18:37:16.903Z,30
2016-06-06T18:38:17.047Z,30
2016-06-06T18:39:17.034Z,30
2016-06-06T18:40:16.880Z,25
2016-06-06T18:41:17.086Z,25
2016-06-06T18:42:17.042Z,25
2016-06-06T18:43:17.107Z,25
2016-06-06T18:44:17.033Z,25
2016-06-06T18:45:18.066Z,25
2016-06-06T18:46:16.991Z,25
2016-06-06T18:47:16.852Z,20
2016-06-06T18:48:16.980Z,20
2016-06-06T18:49:17.030Z,20
2016-06-06T18:50:16.829Z,20
2016-06-06T18:51:16.957Z,20
2016-06-06T18:52:16.991Z,20
2016-06-06T18:53:17.025Z,20
2016-06-06T18:54:16.949Z,15
2016-06-06T18:55:16.936Z,15
2016-06-06T18:56:16.955Z,15
2016-06-06T18:57:16.957Z,15
2016-06-06T18:58:16.929Z,15
2016-06-06T18:59:16.916Z,15
2016-06-06T19:00:16.809Z,15
2016-06-06T19:01:16.967Z,15
2016-06-06T19:02:16.939Z,15
2016-06-06T19:03:16.895Z,15
2016-06-06T19:04:16.898Z,10
2016-06-06T19:05:16.744Z,10
2016-06-06T19:06:16.887Z,10
2016-06-06T19:07:16.890Z,10
2016-06-06T19:08:16.893Z,10
2016-06-06T19:09:16.880Z,10
2016-06-06T19:10:16.883Z,10
2016-06-06T19:11:16.839Z,10
2016-06-06T19:12:16.873Z,10
2016-06-06T19:13:16.860Z,10
2016-06-06T19:14:16.831Z,10
2016-06-06T19:15:16.833Z,5
2016-06-06T19:16:16.915Z,5
2016-06-06T19:17:17.183Z,5
2016-06-06T19:18:16.874Z,5
2016-06-06T19:19:16.672Z,5
2016-06-06T19:20:16.800Z,5
2016-06-06T19:21:16.788Z,5
2016-06-06T19:22:16.806Z,5
2016-06-06T19:23:16.668Z,5
2016-06-06T19:24:16.811Z,5
2016-06-06T19:25:16.782Z,5
2016-06-06T19:26:16.816Z,5
2016-06-06T19:27:16.444Z,5
2016-06-06T19:28:16.775Z,5
2016-06-06T19:29:16.762Z,5
2016-06-06T19:30:16.796Z,5
2016-06-06T19:31:16.768Z,5
2016-06-06T19:32:16.754Z,5
2016-06-06T19:33:16.742Z,5
2016-06-06T19:34:16.729Z,5
2016-06-06T19:35:17.465Z,0
2016-06-06T19:36:16.734Z,0
2016-06-06T19:37:16.706Z,0
2016-06-06T19:38:16.724Z,0
2016-06-06T19:39:16.680Z,0
2016-06-06T19:40:16.683Z,0
2016-06-06T19:41:16.686Z,0
2016-06-06T19:42:16.672Z,0
2016-06-06T19:43:16.737Z,0
2016-06-06T19:44:16.647Z,0
2016-06-06T19:45:16.664Z,0
2016-06-06T19:46:16.667Z,0
2016-06-06T19:47:16.686Z,0
2016-06-06T19:48:17.829Z,0
2016-06-06T19:49:17.425Z,0
2016-06-06T19:50:16.630Z,0
2016-06-06T19:51:16.696Z,0
2016-06-06T19:52:16.605Z,0
2016-06-06T19:53:16.593Z,0
2016-06-06T19:54:16.595Z,0
2016-06-06T19:55:16.613Z,0
2016-06-06T19:56:16.616Z,0
2016-06-06T19:57:16.588Z,0
2016-06-06T19:58:16.590Z,0
2016-06-06T19:59:16.624Z,0
2016-06-06T20:00:16.564Z,0
2016-06-06T20:01:16.551Z,0
2016-06-06T20:02:16.554Z,0
2016-06-06T20:03:16.540Z,0
2016-06-06T20:04:16.559Z,0
2016-06-06T20:05:17.172Z,0
2016-06-06T20:06:16.548Z,0
2016-06-06T20:07:16.521Z,0
2016-06-06T20:08:16.492Z,0
2016-06-06T20:09:16.557Z,0
2016-06-06T20:10:16.481Z,0
2016-06-06T20:11:16.531Z,0
2016-06-06T20:12:16.472Z,0
2016-06-06T20:13:16.458Z,0
2016-06-06T20:14:16.461Z,0
2016-06-06T20:15:16.448Z,0
2016-06-06T20:16:16.513Z,0
2016-06-06T20:17:16.453Z,0
2016-06-06T20:18:16.441Z,0
2016-06-06T20:19:16.413Z,0
2016-06-06T20:20:17.071Z,0
2016-06-06T20:21:16.481Z,0
2016-06-06T20:22:16.405Z,0
2016-06-06T20:23:16.423Z,0
2016-06-06T20:24:16.426Z,0
2016-06-06T20:25:16.382Z,0
2016-06-06T20:26:16.415Z,0
2016-06-06T20:27:16.371Z,0
2016-06-06T20:28:16.405Z,0
2016-06-06T20:29:16.346Z,0
2016-06-06T20:30:16.457Z,0
2016-06-06T20:31:16.179Z,0
2016-06-06T20:32:16.323Z,0
2016-06-06T20:33:16.341Z,0
2016-06-06T20:34:16.360Z,0
2016-06-06T20:35:16.768Z,0
2016-06-06T20:36:16.145Z,0
2016-06-06T20:37:16.289Z,0
2016-06-06T20:38:16.401Z,0
2016-06-06T20:39:16.278Z,0
2016-06-06T20:40:16.297Z,0
2016-06-06T20:41:16.268Z,0
2016-06-06T20:42:16.256Z,0
2016-06-06T20:43:16.258Z,0
2016-06-06T20:44:16.261Z,0
2016-06-06T20:45:16.232Z,0
2016-06-06T20:46:16.235Z,0
2016-06-06T20:47:16.222Z,0
2016-06-06T20:48:16.084Z,0
2016-06-06T20:49:16.211Z,0
2016-06-06T20:50:15.996Z,0
2016-06-06T20:51:16.044Z,0
2016-06-06T20:52:16.204Z,0
2016-06-06T20:53:16.191Z,0
2016-06-06T20:54:16.178Z,0
2016-06-06T20:55:16.180Z,0
2016-06-06T20:56:16.152Z,0
2016-06-06T20:57:16.015Z,0
2016-06-06T20:58:16.174Z,0
2016-06-06T20:59:16.145Z,0
2016-06-06T21:00:15.991Z,0
2016-06-06T21:01:16.197Z,0
2016-06-06T21:02:16.138Z,0
2016-06-06T21:03:15.969Z,0
2016-06-06T21:04:16.111Z,0
2016-06-06T21:05:16.926Z,0
2016-06-06T21:06:16.477Z,0
2016-06-06T21:07:16.088Z,0
2016-06-06T21:08:16.075Z,0
2016-06-06T21:09:16.125Z,0
2016-06-06T21:10:16.065Z,0
2016-06-06T21:11:16.115Z,0
2016-06-06T21:12:16.055Z,0
2016-06-06T21:13:16.073Z,0
2016-06-06T21:14:16.029Z,0
2016-06-06T21:15:16.032Z,0
2016-06-06T21:16:16.019Z,0
2016-06-06T21:17:16.006Z,0
2016-06-06T21:18:16.008Z,0
2016-06-06T21:19:16.043Z,0
2016-06-06T21:20:15.841Z,0
2016-06-06T21:21:16.344Z,0
2016-06-06T21:22:15.957Z,0
2016-06-06T21:23:15.975Z,0
2016-06-06T21:24:15.946Z,0
2016-06-06T21:25:15.965Z,0
2016-06-06T21:26:15.936Z,0
2016-06-06T21:27:15.908Z,0
2016-06-06T21:28:15.926Z,0
2016-06-06T21:29:15.913Z,0
2016-06-06T21:30:15.900Z,0
2016-06-06T21:31:15.902Z,0
2016-06-06T21:32:15.905Z,0
2016-06-06T21:33:15.892Z,0
2016-06-06T21:34:15.895Z,0
2016-06-06T21:35:16.835Z,0
2016-06-06T21:36:16.838Z,0
2016-06-06T21:37:15.872Z,0
2016-06-06T21:38:15.687Z,0
2016-06-06T21:39:17.190Z,0
2016-06-06T21:40:15.849Z,0
2016-06-06T21:41:15.664Z,0
2016-06-06T21:42:15.870Z,0
2016-06-06T21:43:15.809Z,0
2016-06-06T21:44:15.859Z,0
2016-06-06T21:45:15.800Z,0
2016-06-06T21:46:15.849Z,0
2016-06-06T21:47:15.789Z,0
2016-06-06T21:48:15.839Z,0
2016-06-06T21:49:15.748Z,0
2016-06-06T21:50:16.235Z,0
2016-06-06T21:51:15.910Z,0
2016-06-06T21:52:15.741Z,0
2016-06-06T21:53:15.728Z,0
2016-06-06T21:54:15.761Z,0
2016-06-06T21:55:15.717Z,0
2016-06-06T21:56:15.704Z,0
2016-06-06T21:57:15.722Z,0
2016-06-06T21:58:15.741Z,0
2016-06-06T21:59:15.697Z,0
2016-06-06T22:00:15.668Z,0
2016-06-06T22:01:15.655Z,0
2016-06-06T22:02:15.658Z,0
2016-06-06T22:03:15.661Z,0
2016-06-06T22:04:15.632Z,0
2016-06-06T22:05:16.479Z,0
2016-06-06T22:06:15.512Z,0
2016-06-06T22:07:15.593Z,0
2016-06-06T22:08:15.690Z,0
2016-06-06T22:09:15.630Z,0
2016-06-06T22:10:15.601Z,0
2016-06-06T22:11:15.589Z,0
2016-06-06T22:12:15.560Z,0
2016-06-06T22:13:15.579Z,0
2016-06-06T22:14:15.409Z,0
2016-06-06T22:15:15.553Z,0
2016-06-06T22:16:15.556Z,0
2016-06-06T22:17:15.542Z,0
2016-06-06T22:18:15.560Z,0
2016-06-06T22:19:16.173Z,0
2016-06-06T22:20:15.534Z,0
2016-06-06T22:21:15.506Z,0
2016-06-06T22:22:15.524Z,0
2016-06-06T22:23:15.480Z,0
2016-06-06T22:24:15.483Z,0
2016-06-06T22:25:15.377Z,0
2016-06-06T22:26:15.457Z,0
2016-06-06T22:27:15.335Z,0
2016-06-06T22:28:15.462Z,0
2016-06-06T22:29:15.527Z,0
2016-06-06T22:30:15.452Z,0
2016-06-06T22:31:15.439Z,0
2016-06-06T22:32:15.411Z,0
2016-06-06T22:33:16.288Z,0
2016-06-06T22:34:15.416Z,0
2016-06-06T22:35:15.419Z,0
2016-06-06T22:36:15.421Z,0
2016-06-06T22:37:15.424Z,0
2016-06-06T22:38:15.349Z,0
2016-06-06T22:39:15.210Z,0
2016-06-06T22:40:15.354Z,0
2016-06-06T22:41:15.201Z,0
2016-06-06T22:42:15.359Z,0
2016-06-06T22:43:15.346Z,0
2016-06-06T22:44:15.192Z,0